Time;durP1;ratioP1;P1;durP2;ratioP2;P2;SDS_P1;SDS_P2;PMS_P1;PMS_P2;Temp;Humidity;BMP_temperature;BMP_pressure;BME280_temperature;BME280_humidity;BME280_pressure;Samples;Min_cycle;Max_cycle;Signal;HPM_P1;HPM_P2
2023/01/04 00:00:48;;;;;;;;;;;3.50;99.90;;;;;;5000801;28;20097;-73
2023/01/04 00:03:18;;;;;;;;;;;3.60;99.90;;;;;;4993526;28;19926;-72
2023/01/04 00:05:47;;;;;;;;;;;3.50;99.90;;;;;;5001588;28;20407;-71
2023/01/04 00:08:16;;;;;;;;;;;3.50;99.90;;;;;;5008391;28;20011;-73
2023/01/04 00:10:48;;;;;;;;;;;3.60;99.90;;;;;;5007212;28;19929;-72
2023/01/04 00:13:23;;;;;;;;;;;3.50;99.90;;;;;;5014733;28;20395;-71
2023/01/04 00:15:58;;;;;;;;;;;3.50;99.90;;;;;;5005254;28;19925;-72
2023/01/04 00:18:38;;;;;;;;;;;3.50;99.90;;;;;;5007354;28;19926;-73
2023/01/04 00:21:15;;;;;;;;;;;3.60;99.90;;;;;;4980489;28;20407;-73
2023/01/04 00:23:47;;;;;;;;;;;3.60;99.90;;;;;;5009945;28;20292;-72
2023/01/04 00:26:33;;;;;;;;;;;3.70;99.90;;;;;;4998695;28;19968;-71
2023/01/04 00:29:13;;;;;;;;;;;3.70;99.90;;;;;;5013826;28;20636;-72
2023/01/04 00:31:56;;;;;;;;;;;3.80;99.90;;;;;;4986506;28;19925;-73
2023/01/04 00:34:27;;;;;;;;;;;3.80;99.90;;;;;;4994627;28;19995;-71
2023/01/04 00:36:56;;;;;;;;;;;3.80;99.90;;;;;;4994282;28;19930;-72
2023/01/04 00:39:24;;;;;;;;;;;3.80;99.90;;;;;;5010408;28;20040;-73
2023/01/04 00:42:03;;;;;;;;;;;3.80;99.90;;;;;;5010306;28;19929;-73
2023/01/04 00:44:41;;;;;;;;;;;3.90;99.90;;;;;;5005363;28;19958;-72
2023/01/04 00:47:12;;;;;;;;;;;3.90;99.90;;;;;;4999845;28;19983;-72
2023/01/04 00:49:45;;;;;;;;;;;4.00;99.90;;;;;;5001701;28;19926;-72
2023/01/04 00:52:17;;;;;;;;;;;4.10;99.90;;;;;;4998050;28;19926;-72
2023/01/04 00:54:45;;;;;;;;;;;4.30;99.90;;;;;;4987823;28;19969;-72
2023/01/04 00:57:12;;;;;;;;;;;4.40;99.90;;;;;;5008138;28;19930;-72
2023/01/04 00:59:42;;;;;;;;;;;4.50;99.90;;;;;;4987171;28;19926;-72
2023/01/04 01:02:13;;;;;;;;;;;4.50;99.90;;;;;;5000588;28;19925;-72
2023/01/04 01:04:45;;;;;;;;;;;4.60;99.90;;;;;;5024367;28;20295;-72
2023/01/04 01:07:15;;;;;;;;;;;4.50;99.90;;;;;;4991079;28;19957;-72
2023/01/04 01:09:44;;;;;;;;;;;4.50;99.90;;;;;;4992208;28;20328;-72
2023/01/04 01:12:13;;;;;;;;;;;4.50;99.90;;;;;;4963139;28;19926;-72
2023/01/04 01:14:41;;;;;;;;;;;4.40;99.90;;;;;;4979209;28;19926;-72
2023/01/04 01:17:10;;;;;;;;;;;4.40;99.90;;;;;;4976924;28;19926;-72
2023/01/04 01:19:37;;;;;;;;;;;4.40;99.90;;;;;;5001054;28;19934;-73
2023/01/04 01:22:07;;;;;;;;;;;4.40;99.90;;;;;;5005021;28;20346;-71
2023/01/04 01:24:36;;;;;;;;;;;4.40;99.90;;;;;;4985600;28;20012;-72
2023/01/04 01:27:13;;;;;;;;;;;4.30;99.90;;;;;;4996447;28;19937;-72
2023/01/04 01:29:45;;;;;;;;;;;4.40;99.90;;;;;;5002995;28;19925;-71
2023/01/04 01:32:40;;;;;;;;;;;4.50;99.90;;;;;;5008522;28;19913;-72
2023/01/04 01:35:15;;;;;;;;;;;4.60;99.90;;;;;;5009101;28;19930;-77
2023/01/04 01:37:44;;;;;;;;;;;4.60;99.90;;;;;;5006909;28;19926;-75
2023/01/04 01:40:12;;;;;;;;;;;4.60;99.90;;;;;;5004158;28;19986;-75
2023/01/04 01:42:50;;;;;;;;;;;4.50;99.90;;;;;;5017551;28;19925;-72
2023/01/04 01:45:32;;;;;;;;;;;4.50;99.90;;;;;;4990122;28;19925;-72
2023/01/04 01:48:21;;;;;;;;;;;4.40;99.90;;;;;;4986808;28;19957;-71
2023/01/04 01:50:56;;;;;;;;;;;4.40;99.90;;;;;;5008829;28;20024;-72
2023/01/04 01:53:25;;;;;;;;;;;4.30;99.90;;;;;;4996701;28;19925;-72
2023/01/04 01:55:54;;;;;;;;;;;4.30;99.90;;;;;;4999527;28;19925;-73
2023/01/04 01:58:28;;;;;;;;;;;4.20;99.90;;;;;;5000196;28;20013;-72
2023/01/04 02:00:58;;;;;;;;;;;4.20;99.90;;;;;;4996248;28;19996;-72
2023/01/04 02:03:30;;;;;;;;;;;4.10;99.90;;;;;;5001218;28;19952;-72
2023/01/04 02:06:00;;;;;;;;;;;4.00;99.90;;;;;;4989042;28;19953;-71
2023/01/04 02:08:28;;;;;;;;;;;3.90;99.90;;;;;;4974774;28;19968;-71
2023/01/04 02:10:58;;;;;;;;;;;3.90;99.90;;;;;;4986992;28;19958;-71
2023/01/04 02:16:30;;;;;;;;;;;3.80;99.90;;;;;;4955870;28;19952;-72
2023/01/04 02:19:20;;;;;;;;;;;3.70;99.90;;;;;;5000769;28;20000;-71
2023/01/04 02:22:13;;;;;;;;;;;3.70;99.90;;;;;;5000230;28;20407;-73
2023/01/04 02:25:09;;;;;;;;;;;3.60;99.90;;;;;;5000583;28;20436;-72
2023/01/04 02:28:21;;;;;;;;;;;3.60;99.90;;;;;;5004996;28;20003;-72
2023/01/04 02:31:21;;;;;;;;;;;3.50;99.90;;;;;;4993446;28;19929;-71
2023/01/04 02:34:29;;;;;;;;;;;3.50;99.90;;;;;;4989097;28;19980;-72
2023/01/04 02:37:18;;;;;;;;;;;3.40;99.90;;;;;;4980966;28;19925;-72
2023/01/04 02:39:56;;;;;;;;;;;3.40;99.90;;;;;;4985649;28;19957;-72
2023/01/04 02:45:26;;;;;;;;;;;3.50;99.90;;;;;;4997649;28;19937;-72
2023/01/04 02:50:58;;;;;;;;;;;3.50;99.90;;;;;;4996011;28;19930;-71
2023/01/04 02:56:47;;;;;;;;;;;3.50;99.90;;;;;;4994997;28;20455;-72
2023/01/04 02:59:36;;;;;;;;;;;3.60;99.90;;;;;;4985698;28;19930;-73
2023/01/04 03:08:25;;;;;;;;;;;3.70;99.90;;;;;;5000613;28;19992;-73
2023/01/04 03:10:59;;;;;;;;;;;3.70;99.90;;;;;;4998366;28;19936;-75
2023/01/04 03:13:39;;;;;;;;;;;3.80;99.90;;;;;;4999216;28;20298;-72
2023/01/04 03:16:19;;;;;;;;;;;3.80;99.90;;;;;;4984279;28;20016;-72
2023/01/04 03:19:13;;;;;;;;;;;3.80;99.90;;;;;;4982069;28;20035;-71
2023/01/04 03:21:43;;;;;;;;;;;3.90;99.90;;;;;;4974133;28;19930;-72
2023/01/04 03:35:41;;;;;;;;;;;4.20;99.90;;;;;;4979577;28;20304;-72
2023/01/04 03:50:32;;;;;;;;;;;4.70;99.90;;;;;;4997279;28;19933;-72
2023/01/04 03:53:16;;;;;;;;;;;4.70;99.90;;;;;;4999305;28;19929;-72
2023/01/04 03:55:50;;;;;;;;;;;4.70;99.90;;;;;;5000758;28;19937;-72
2023/01/04 03:58:22;;;;;;;;;;;4.70;99.90;;;;;;4998113;28;19926;-72
2023/01/04 04:01:20;;;;;;;;;;;4.80;99.90;;;;;;4997647;28;20000;-72
2023/01/04 04:09:24;;;;;;;;;;;4.80;99.90;;;;;;5000570;28;19956;-72
2023/01/04 04:11:52;;;;;;;;;;;4.80;99.90;;;;;;4975612;28;19989;-72
2023/01/04 04:14:20;;;;;;;;;;;4.70;99.90;;;;;;4985279;28;19995;-72
2023/01/04 04:16:52;;;;;;;;;;;4.70;99.90;;;;;;5002051;28;19936;-72
2023/01/04 04:19:20;;;;;;;;;;;4.70;99.90;;;;;;4986571;28;19956;-71
2023/01/04 04:21:50;;;;;;;;;;;4.80;99.90;;;;;;4981045;28;20007;-74
2023/01/04 04:24:19;;;;;;;;;;;4.80;99.90;;;;;;4977313;28;19930;-71
2023/01/04 04:26:47;;;;;;;;;;;4.80;99.90;;;;;;4977937;28;19980;-72
2023/01/04 04:29:14;;;;;;;;;;;4.90;99.90;;;;;;4996421;28;19960;-72
2023/01/04 04:31:51;;;;;;;;;;;4.90;99.90;;;;;;4997332;28;19925;-72
2023/01/04 04:34:28;;;;;;;;;;;5.00;99.90;;;;;;4990474;28;19933;-71
2023/01/04 04:37:09;;;;;;;;;;;5.00;99.90;;;;;;4974713;28;19937;-73
2023/01/04 04:39:38;;;;;;;;;;;5.00;99.90;;;;;;4965746;28;19925;-72
2023/01/04 04:42:08;;;;;;;;;;;5.00;99.90;;;;;;4966834;28;19926;-72
2023/01/04 04:44:36;;;;;;;;;;;5.10;99.90;;;;;;4982824;28;19914;-74
2023/01/04 04:47:05;;;;;;;;;;;5.10;99.90;;;;;;4993092;28;19940;-76
2023/01/04 04:49:37;;;;;;;;;;;5.10;99.90;;;;;;4983880;28;19981;-72
2023/01/04 04:52:06;;;;;;;;;;;5.10;99.90;;;;;;4985172;28;20340;-72
2023/01/04 04:54:38;;;;;;;;;;;5.10;99.90;;;;;;4978086;28;19953;-72
2023/01/04 04:57:07;;;;;;;;;;;5.10;99.90;;;;;;4978035;28;19961;-72
2023/01/04 04:59:36;;;;;;;;;;;5.10;99.90;;;;;;4974700;28;20016;-73
2023/01/04 05:02:08;;;;;;;;;;;5.10;99.90;;;;;;4988202;28;19930;-72
2023/01/04 05:07:32;;;;;;;;;;;5.10;99.90;;;;;;5002574;28;20329;-72
2023/01/04 05:10:07;;;;;;;;;;;5.20;99.90;;;;;;4981351;28;20301;-72
2023/01/04 05:15:38;;;;;;;;;;;5.30;99.90;;;;;;4997705;28;19980;-73
2023/01/04 05:18:10;;;;;;;;;;;5.20;99.90;;;;;;4991077;28;19925;-72
2023/01/04 05:20:39;;;;;;;;;;;5.20;99.90;;;;;;4980860;28;19929;-71
2023/01/04 05:23:37;;;;;;;;;;;5.10;99.90;;;;;;4993500;28;19932;-72
2023/01/04 05:26:12;;;;;;;;;;;5.20;99.90;;;;;;4979872;28;19925;-71
2023/01/04 05:28:43;;;;;;;;;;;5.20;99.90;;;;;;4993403;28;20352;-71
2023/01/04 05:31:25;;;;;;;;;;;5.20;99.90;;;;;;5001310;28;20393;-71
2023/01/04 05:33:56;;;;;;;;;;;5.30;99.90;;;;;;4996977;28;20309;-72
2023/01/04 05:36:32;;;;;;;;;;;5.30;99.90;;;;;;4980351;28;19925;-73
2023/01/04 05:39:07;;;;;;;;;;;5.30;99.90;;;;;;4996016;28;19929;-72
2023/01/04 05:44:50;;;;;;;;;;;5.50;99.90;;;;;;4998688;28;19933;-72
2023/01/04 05:47:23;;;;;;;;;;;5.50;99.90;;;;;;4983718;28;20320;-72
2023/01/04 05:49:54;;;;;;;;;;;5.50;99.90;;;;;;4999477;28;19980;-74
2023/01/04 05:52:28;;;;;;;;;;;5.50;99.90;;;;;;5000329;28;20274;-71
2023/01/04 05:54:58;;;;;;;;;;;5.50;99.90;;;;;;4993260;28;19929;-71
2023/01/04 05:57:28;;;;;;;;;;;5.60;99.90;;;;;;4959625;28;20042;-75
2023/01/04 06:00:00;;;;;;;;;;;5.60;99.90;;;;;;4983859;28;19972;-72
2023/01/04 06:02:38;;;;;;;;;;;5.70;99.90;;;;;;4964847;28;20012;-71
2023/01/04 06:05:10;;;;;;;;;;;5.70;99.90;;;;;;4971071;28;20304;-72
2023/01/04 06:07:38;;;;;;;;;;;5.70;99.90;;;;;;4987163;28;20266;-72
2023/01/04 06:10:07;;;;;;;;;;;5.60;99.90;;;;;;4982833;28;19925;-72
2023/01/04 06:12:35;;;;;;;;;;;5.60;99.90;;;;;;4959136;28;20352;-71
2023/01/04 06:15:04;;;;;;;;;;;5.60;99.90;;;;;;4982232;28;20286;-71
2023/01/04 06:17:33;;;;;;;;;;;5.50;99.90;;;;;;4987330;28;20390;-72
2023/01/04 06:20:02;;;;;;;;;;;5.50;99.90;;;;;;4981953;28;20025;-72
2023/01/04 06:22:32;;;;;;;;;;;5.50;99.90;;;;;;4976935;28;19932;-72
2023/01/04 06:25:00;;;;;;;;;;;5.50;99.90;;;;;;4994840;28;20323;-72
2023/01/04 06:27:28;;;;;;;;;;;5.40;99.90;;;;;;4986963;28;19926;-71
2023/01/04 06:29:56;;;;;;;;;;;5.40;99.90;;;;;;4991180;28;20300;-71
2023/01/04 06:32:29;;;;;;;;;;;5.40;99.90;;;;;;5004000;28;19926;-71
2023/01/04 06:35:02;;;;;;;;;;;5.30;99.90;;;;;;4997400;28;19932;-72
2023/01/04 06:37:35;;;;;;;;;;;5.30;99.90;;;;;;5000663;28;19926;-71
2023/01/04 06:40:12;;;;;;;;;;;5.30;99.90;;;;;;4999278;28;20293;-71
2023/01/04 06:42:47;;;;;;;;;;;5.30;99.90;;;;;;4980959;28;19933;-72
2023/01/04 06:45:17;;;;;;;;;;;5.30;99.90;;;;;;4976632;28;19932;-72
2023/01/04 06:47:48;;;;;;;;;;;5.20;99.90;;;;;;5001995;28;20385;-71
2023/01/04 06:50:20;;;;;;;;;;;5.20;99.90;;;;;;4995828;28;19980;-73
2023/01/04 06:52:52;;;;;;;;;;;5.20;99.90;;;;;;5004537;28;19933;-71
2023/01/04 06:55:22;;;;;;;;;;;5.20;99.90;;;;;;4996545;28;20282;-72
2023/01/04 06:57:54;;;;;;;;;;;5.20;99.90;;;;;;5003176;28;19926;-71
2023/01/04 07:00:22;;;;;;;;;;;5.20;99.90;;;;;;5001139;28;19926;-71
2023/01/04 07:02:49;;;;;;;;;;;5.20;99.90;;;;;;4986054;28;19941;-72
2023/01/04 07:05:20;;;;;;;;;;;5.20;99.90;;;;;;4990123;28;19950;-72
2023/01/04 07:07:48;;;;;;;;;;;5.20;99.90;;;;;;4990267;28;20407;-72
2023/01/04 07:10:18;;;;;;;;;;;5.20;99.90;;;;;;4972792;28;20392;-71
2023/01/04 07:13:01;;;;;;;;;;;5.20;99.90;;;;;;4993518;28;19933;-71
2023/01/04 07:15:58;;;;;;;;;;;5.20;99.90;;;;;;5005245;28;19932;-72
2023/01/04 07:18:27;;;;;;;;;;;5.20;99.90;;;;;;4984421;28;20015;-72
2023/01/04 07:20:55;;;;;;;;;;;5.20;99.90;;;;;;4971854;28;20415;-71
2023/01/04 07:23:32;;;;;;;;;;;5.20;99.90;;;;;;4993652;28;20386;-71
2023/01/04 07:26:25;;;;;;;;;;;5.20;99.90;;;;;;4994701;28;19932;-72
2023/01/04 07:31:50;;;;;;;;;;;5.30;99.90;;;;;;4986501;28;20381;-71
2023/01/04 07:34:21;;;;;;;;;;;5.30;99.90;;;;;;4964433;28;19926;-74
2023/01/04 07:36:51;;;;;;;;;;;5.40;99.90;;;;;;4984963;28;20380;-72
2023/01/04 07:39:19;;;;;;;;;;;5.40;99.90;;;;;;4966278;28;20407;-72
2023/01/04 07:41:52;;;;;;;;;;;5.50;99.90;;;;;;4984474;28;19941;-74
2023/01/04 07:44:27;;;;;;;;;;;5.50;99.90;;;;;;4992327;28;19976;-71
2023/01/04 07:46:56;;;;;;;;;;;5.50;99.90;;;;;;4999521;28;20319;-72
2023/01/04 07:49:24;;;;;;;;;;;5.60;99.90;;;;;;5010973;28;19929;-71
2023/01/04 07:51:55;;;;;;;;;;;5.60;99.90;;;;;;5027427;28;19972;-75
2023/01/04 07:54:27;;;;;;;;;;;5.70;99.90;;;;;;4997239;28;19980;-72
2023/01/04 07:56:59;;;;;;;;;;;5.70;99.90;;;;;;4992457;28;20416;-72
2023/01/04 07:59:26;;;;;;;;;;;5.80;99.90;;;;;;4995302;28;19977;-73
2023/01/04 08:01:57;;;;;;;;;;;5.80;99.90;;;;;;4974292;28;19933;-72
2023/01/04 08:04:29;;;;;;;;;;;5.80;99.90;;;;;;4974532;28;19926;-70
2023/01/04 08:06:56;;;;;;;;;;;5.80;99.90;;;;;;4973611;28;19957;-71
2023/01/04 08:09:28;;;;;;;;;;;5.80;99.90;;;;;;4974514;28;19925;-70
2023/01/04 08:12:00;;;;;;;;;;;5.90;99.90;;;;;;4980312;28;19933;-71
2023/01/04 08:14:27;;;;;;;;;;;5.90;99.90;;;;;;4996153;28;20393;-72
2023/01/04 08:16:59;;;;;;;;;;;5.90;99.90;;;;;;4974310;28;19926;-72
2023/01/04 08:19:25;;;;;;;;;;;6.00;99.90;;;;;;4996238;28;19926;-70
2023/01/04 08:21:57;;;;;;;;;;;6.10;99.90;;;;;;4990470;28;19926;-72
2023/01/04 08:24:29;;;;;;;;;;;6.10;99.90;;;;;;4976834;28;20007;-71
2023/01/04 08:27:00;;;;;;;;;;;6.10;99.90;;;;;;5008382;28;19932;-70
2023/01/04 08:29:32;;;;;;;;;;;6.20;99.90;;;;;;5013123;28;19925;-70
2023/01/04 08:32:04;;;;;;;;;;;6.30;99.90;;;;;;4990621;28;19930;-72
2023/01/04 08:34:31;;;;;;;;;;;6.40;99.90;;;;;;4982056;28;20338;-70
2023/01/04 08:37:02;;;;;;;;;;;6.40;99.90;;;;;;5000907;28;19932;-72
2023/01/04 08:39:35;;;;;;;;;;;6.50;99.90;;;;;;5010335;28;19979;-70
2023/01/04 08:42:02;;;;;;;;;;;6.50;99.90;;;;;;4998515;28;19926;-70
2023/01/04 08:44:30;;;;;;;;;;;6.60;99.90;;;;;;5001979;28;20558;-72
2023/01/04 08:46:58;;;;;;;;;;;6.60;99.90;;;;;;4986028;28;19925;-70
2023/01/04 08:49:29;;;;;;;;;;;6.60;99.90;;;;;;5010070;28;20408;-71
2023/01/04 08:52:01;;;;;;;;;;;6.60;99.90;;;;;;4998649;28;20396;-71
2023/01/04 08:54:57;;;;;;;;;;;6.60;99.90;;;;;;5109296;27;19916;-71
2023/01/04 08:57:26;;;;;;;;;;;6.60;99.90;;;;;;5067637;28;19924;-71
2023/01/04 08:59:56;;;;;;;;;;;6.60;99.90;;;;;;5075677;28;20405;-70
2023/01/04 09:02:26;;;;;;;;;;;6.60;99.90;;;;;;5062063;28;19924;-72
2023/01/04 09:04:58;;;;;;;;;;;6.60;99.90;;;;;;5050998;28;19931;-72
2023/01/04 09:07:28;;;;;;;;;;;6.70;99.90;;;;;;5049404;28;19931;-71
2023/01/04 09:09:59;;;;;;;;;;;6.60;99.90;;;;;;5047891;28;20749;-71
2023/01/04 09:12:29;;;;;;;;;;;6.70;99.90;;;;;;5048427;28;19932;-71
2023/01/04 09:15:01;;;;;;;;;;;6.70;99.90;;;;;;5071021;28;20362;-71
2023/01/04 09:17:29;;;;;;;;;;;6.70;99.90;;;;;;5051713;28;20370;-72
2023/01/04 09:20:25;;;;;;;;;;;6.70;99.90;;;;;;5048696;28;20455;-71
2023/01/04 09:22:57;;;;;;;;;;;6.70;99.90;;;;;;5069135;28;19924;-73
2023/01/04 09:25:30;;;;;;;;;;;6.80;99.90;;;;;;5069477;28;19924;-71
2023/01/04 09:28:02;;;;;;;;;;;6.80;99.90;;;;;;5073079;28;20319;-71
2023/01/04 09:30:58;;;;;;;;;;;6.80;99.90;;;;;;5064106;28;20031;-70
2023/01/04 09:33:27;;;;;;;;;;;6.90;99.90;;;;;;5070987;28;20023;-71
2023/01/04 09:36:00;;;;;;;;;;;6.90;99.90;;;;;;5068264;28;19924;-71
2023/01/04 09:38:33;;;;;;;;;;;6.90;99.90;;;;;;5050037;28;20039;-71
2023/01/04 09:41:13;;;;;;;;;;;7.00;99.90;;;;;;5051908;28;19978;-72
2023/01/04 09:43:48;;;;;;;;;;;7.00;99.90;;;;;;5049836;28;19956;-70
2023/01/04 09:46:23;;;;;;;;;;;7.00;99.90;;;;;;5067197;28;19932;-71
2023/01/04 09:48:54;;;;;;;;;;;7.10;99.90;;;;;;5050156;28;19968;-71
2023/01/04 09:51:26;;;;;;;;;;;7.10;99.90;;;;;;5049498;28;20482;-71
2023/01/04 09:53:59;;;;;;;;;;;7.10;99.90;;;;;;5067116;28;19931;-71
2023/01/04 09:56:31;;;;;;;;;;;7.10;99.90;;;;;;5047899;28;19925;-71
2023/01/04 09:59:01;;;;;;;;;;;7.10;99.90;;;;;;5048594;28;21365;-71
2023/01/04 10:01:49;;;;;;;;;;;7.10;99.90;;;;;;5066019;28;20027;-71
2023/01/04 10:04:48;;;;;;;;;;;7.20;99.90;;;;;;5038935;28;20467;-71
2023/01/04 10:07:25;;;;;;;;;;;7.20;99.90;;;;;;5045358;28;20457;-71
2023/01/04 10:09:55;;;;;;;;;;;7.20;99.90;;;;;;5051165;28;19935;-71
2023/01/04 10:12:32;;;;;;;;;;;7.20;99.90;;;;;;5053648;28;19963;-71
2023/01/04 10:15:19;;;;;;;;;;;7.10;99.90;;;;;;5053745;28;19939;-71
2023/01/04 10:18:07;;;;;;;;;;;7.10;99.90;;;;;;5057708;28;19944;-71
2023/01/04 10:20:47;;;;;;;;;;;7.10;99.90;;;;;;5049081;28;19925;-72
2023/01/04 10:23:37;;;;;;;;;;;7.10;99.90;;;;;;5050581;28;19936;-71
2023/01/04 10:26:11;;;;;;;;;;;7.10;99.90;;;;;;5052158;28;20031;-71
2023/01/04 10:29:02;;;;;;;;;;;7.10;99.90;;;;;;5054145;28;19936;-72
2023/01/04 10:31:46;;;;;;;;;;;7.10;99.90;;;;;;5052990;28;19924;-75
2023/01/04 10:34:27;;;;;;;;;;;7.10;99.90;;;;;;5051473;28;20011;-72
2023/01/04 10:37:12;;;;;;;;;;;7.10;99.90;;;;;;5035083;28;19925;-71
2023/01/04 10:39:43;;;;;;;;;;;7.10;99.90;;;;;;5053433;28;19924;-71
2023/01/04 10:42:21;;;;;;;;;;;7.10;99.90;;;;;;5045061;28;19931;-71
2023/01/04 10:45:03;;;;;;;;;;;7.10;99.90;;;;;;5050381;28;19924;-71
2023/01/04 10:47:44;;;;;;;;;;;7.20;99.90;;;;;;5034476;28;19925;-71
2023/01/04 10:50:21;;;;;;;;;;;7.20;99.90;;;;;;5049594;28;19933;-71
2023/01/04 10:53:01;;;;;;;;;;;7.20;99.90;;;;;;5077554;28;19955;-72
2023/01/04 10:55:43;;;;;;;;;;;7.20;99.90;;;;;;5066859;28;20450;-71
2023/01/04 10:58:17;;;;;;;;;;;7.30;99.90;;;;;;5048477;28;19925;-71
2023/01/04 11:00:52;;;;;;;;;;;7.40;99.90;;;;;;5054516;28;19928;-72
2023/01/04 11:03:26;;;;;;;;;;;7.40;99.90;;;;;;5037261;28;19929;-72
2023/01/04 11:06:02;;;;;;;;;;;7.40;99.90;;;;;;5035927;28;19960;-71
2023/01/04 11:08:45;;;;;;;;;;;7.40;99.90;;;;;;5050164;28;19970;-71
2023/01/04 11:11:20;;;;;;;;;;;7.40;99.90;;;;;;5047887;28;19929;-72
2023/01/04 11:13:51;;;;;;;;;;;7.40;99.90;;;;;;5048225;28;19932;-71
2023/01/04 11:16:22;;;;;;;;;;;7.40;99.90;;;;;;5030348;28;19925;-72
2023/01/04 11:18:53;;;;;;;;;;;7.40;99.90;;;;;;5033276;28;19932;-71
2023/01/04 11:21:26;;;;;;;;;;;7.40;99.90;;;;;;5050690;28;20082;-71
2023/01/04 11:23:59;;;;;;;;;;;7.40;99.90;;;;;;5044980;28;19925;-71
2023/01/04 11:26:34;;;;;;;;;;;7.40;99.90;;;;;;5033598;28;20027;-71
2023/01/04 11:29:05;;;;;;;;;;;7.40;99.90;;;;;;5051213;28;20026;-71
2023/01/04 11:31:40;;;;;;;;;;;7.40;99.90;;;;;;5048296;28;19925;-72
2023/01/04 11:34:12;;;;;;;;;;;7.50;99.90;;;;;;5049574;28;19983;-71
2023/01/04 11:36:46;;;;;;;;;;;7.50;99.90;;;;;;5049177;28;19935;-72
2023/01/04 11:39:25;;;;;;;;;;;7.40;99.90;;;;;;5052328;28;19925;-71
2023/01/04 11:42:02;;;;;;;;;;;7.40;99.90;;;;;;5047481;28;19996;-72
2023/01/04 11:44:30;;;;;;;;;;;7.40;99.90;;;;;;5049450;28;20267;-71
2023/01/04 11:47:06;;;;;;;;;;;7.40;99.90;;;;;;5047864;28;19925;-72
2023/01/04 11:49:35;;;;;;;;;;;7.40;99.90;;;;;;5031606;28;19959;-71
2023/01/04 11:52:03;;;;;;;;;;;7.40;99.90;;;;;;5047661;28;20011;-71
2023/01/04 11:54:33;;;;;;;;;;;7.50;99.90;;;;;;5047743;28;19936;-71
2023/01/04 11:57:09;;;;;;;;;;;7.50;99.90;;;;;;5046939;28;20560;-71
2023/01/04 11:59:41;;;;;;;;;;;7.50;99.90;;;;;;5033074;28;19925;-71
2023/01/04 12:02:19;;;;;;;;;;;7.50;99.90;;;;;;5049995;28;19925;-71
2023/01/04 12:04:47;;;;;;;;;;;7.60;99.90;;;;;;5043565;28;20000;-71
2023/01/04 12:07:21;;;;;;;;;;;7.60;99.90;;;;;;5050620;28;19939;-70
2023/01/04 12:09:50;;;;;;;;;;;7.60;99.90;;;;;;5032763;28;19925;-71
2023/01/04 12:12:22;;;;;;;;;;;7.60;99.90;;;;;;5045992;28;19924;-72
2023/01/04 12:14:51;;;;;;;;;;;7.70;99.90;;;;;;5030676;28;19939;-70
2023/01/04 12:17:38;;;;;;;;;;;7.80;99.90;;;;;;5046723;28;20037;-70
2023/01/04 12:20:28;;;;;;;;;;;7.80;99.90;;;;;;5051161;28;19975;-71
2023/01/04 12:22:58;;;;;;;;;;;7.80;99.90;;;;;;5049005;28;19929;-71
2023/01/04 12:25:37;;;;;;;;;;;7.80;99.90;;;;;;5016034;28;19970;-70
2023/01/04 12:28:26;;;;;;;;;;;7.80;99.90;;;;;;5036642;28;19928;-71
2023/01/04 12:31:15;;;;;;;;;;;7.90;99.90;;;;;;5028715;28;19936;-71
2023/01/04 12:33:53;;;;;;;;;;;7.90;99.90;;;;;;5064610;28;19967;-71
2023/01/04 12:36:40;;;;;;;;;;;8.00;99.90;;;;;;5030480;28;19925;-70
2023/01/04 12:39:12;;;;;;;;;;;8.00;99.90;;;;;;5045534;28;19929;-71
2023/01/04 12:42:02;;;;;;;;;;;8.10;99.90;;;;;;5054783;28;20027;-72
2023/01/04 12:44:37;;;;;;;;;;;8.10;99.90;;;;;;5054298;28;19928;-71
2023/01/04 12:50:30;;;;;;;;;;;8.30;99.90;;;;;;5052597;28;19934;-72
2023/01/04 12:53:02;;;;;;;;;;;8.30;99.90;;;;;;5051116;28;19924;-71
2023/01/04 12:55:34;;;;;;;;;;;8.40;99.90;;;;;;5068379;28;20019;-72
2023/01/04 12:58:23;;;;;;;;;;;8.40;99.90;;;;;;5034076;28;20280;-71
2023/01/04 13:00:53;;;;;;;;;;;8.50;99.90;;;;;;5044222;28;19982;-71
2023/01/04 13:03:23;;;;;;;;;;;8.50;99.90;;;;;;5046817;28;19968;-71
2023/01/04 13:06:03;;;;;;;;;;;8.50;99.90;;;;;;5053465;28;19924;-72
2023/01/04 13:08:40;;;;;;;;;;;8.50;99.90;;;;;;5037808;28;19925;-71
2023/01/04 13:11:28;;;;;;;;;;;8.60;99.90;;;;;;5031913;28;19936;-71
2023/01/04 13:14:04;;;;;;;;;;;8.60;99.90;;;;;;5043746;28;19988;-70
2023/01/04 13:16:38;;;;;;;;;;;8.60;99.90;;;;;;5053581;28;20387;-71
2023/01/04 13:19:20;;;;;;;;;;;8.60;99.90;;;;;;5029398;28;20024;-71
2023/01/04 13:21:51;;;;;;;;;;;8.60;99.90;;;;;;5049637;28;19925;-71
2023/01/04 13:24:26;;;;;;;;;;;8.60;99.90;;;;;;5037717;28;19956;-71
2023/01/04 13:26:55;;;;;;;;;;;8.70;99.90;;;;;;5036816;28;20015;-71
2023/01/04 13:29:29;;;;;;;;;;;8.70;99.90;;;;;;5059267;28;19932;-70
2023/01/04 13:32:09;;;;;;;;;;;8.70;99.90;;;;;;5038265;28;19924;-70
2023/01/04 13:34:46;;;;;;;;;;;8.70;99.90;;;;;;5031188;28;19944;-71
2023/01/04 13:37:20;;;;;;;;;;;8.70;99.90;;;;;;5033344;28;20046;-71
2023/01/04 13:40:08;;;;;;;;;;;8.70;99.90;;;;;;5035706;28;19925;-72
2023/01/04 13:42:39;;;;;;;;;;;8.70;99.90;;;;;;5049319;28;19929;-71
2023/01/04 13:45:27;;;;;;;;;;;8.70;99.90;;;;;;5042831;28;19932;-72
2023/01/04 13:48:00;;;;;;;;;;;8.70;99.90;;;;;;5065305;28;19968;-71
2023/01/04 13:50:45;;;;;;;;;;;8.70;99.90;;;;;;5031497;28;20035;-71
2023/01/04 13:53:22;;;;;;;;;;;8.70;99.90;;;;;;5061758;28;19916;-71
2023/01/04 13:55:55;;;;;;;;;;;8.70;99.90;;;;;;5072641;28;19929;-70
2023/01/04 13:58:33;;;;;;;;;;;8.70;99.90;;;;;;5052597;28;19925;-68
2023/01/04 14:01:07;;;;;;;;;;;8.70;99.90;;;;;;5055103;28;19925;-70
2023/01/04 14:03:41;;;;;;;;;;;8.70;99.90;;;;;;5061990;28;20015;-70
2023/01/04 14:06:12;;;;;;;;;;;8.70;99.90;;;;;;5037387;28;19925;-70
2023/01/04 14:08:45;;;;;;;;;;;8.80;99.90;;;;;;5057810;28;19932;-70
2023/01/04 14:11:57;;;;;;;;;;;8.70;99.90;;;;;;5057808;28;19925;-71
2023/01/04 14:14:18;;;;;;;;;;;8.80;99.90;;;;;;5046210;28;19986;-70
2023/01/04 14:16:48;;;;;;;;;;;8.80;99.90;;;;;;5040366;28;19940;-71
2023/01/04 14:19:27;;;;;;;;;;;8.80;99.90;;;;;;5057874;28;20028;-70
2023/01/04 14:21:57;;;;;;;;;;;8.80;99.90;;;;;;5055074;28;19935;-70
2023/01/04 14:24:35;;;;;;;;;;;8.80;99.90;;;;;;5055964;28;19936;-71
2023/01/04 14:27:25;;;;;;;;;;;8.80;99.90;;;;;;5051074;28;19925;-70
2023/01/04 14:29:59;;;;;;;;;;;8.70;99.90;;;;;;5056641;28;19925;-73
2023/01/04 14:32:28;;;;;;;;;;;8.70;99.90;;;;;;5052834;28;19967;-70
2023/01/04 14:35:03;;;;;;;;;;;8.70;99.90;;;;;;5041020;28;19928;-70
2023/01/04 14:37:36;;;;;;;;;;;8.70;99.90;;;;;;5035647;28;19929;-70
2023/01/04 14:40:22;;;;;;;;;;;8.70;99.90;;;;;;5031730;28;20395;-70
2023/01/04 14:42:53;;;;;;;;;;;8.70;99.90;;;;;;5061966;28;20041;-71
2023/01/04 14:45:24;;;;;;;;;;;8.70;99.90;;;;;;5040374;28;19929;-70
2023/01/04 14:47:56;;;;;;;;;;;8.70;99.90;;;;;;5060033;28;19932;-69
2023/01/04 14:50:26;;;;;;;;;;;8.60;99.90;;;;;;5052746;28;19939;-70
2023/01/04 14:52:56;;;;;;;;;;;8.60;99.90;;;;;;5057925;28;19960;-70
2023/01/04 14:55:24;;;;;;;;;;;8.60;99.90;;;;;;5019065;28;19924;-70
2023/01/04 14:57:53;;;;;;;;;;;8.60;99.90;;;;;;5036636;28;19940;-72
2023/01/04 15:00:22;;;;;;;;;;;8.50;99.90;;;;;;5022166;28;19995;-70
2023/01/04 15:02:51;;;;;;;;;;;8.50;99.90;;;;;;5043321;28;20027;-73
2023/01/04 15:05:21;;;;;;;;;;;8.50;99.90;;;;;;5073860;28;19929;-70
2023/01/04 15:07:50;;;;;;;;;;;8.60;99.90;;;;;;5058229;28;20317;-70
2023/01/04 15:10:26;;;;;;;;;;;8.60;99.90;;;;;;5058121;28;19925;-70
2023/01/04 15:12:59;;;;;;;;;;;8.50;99.90;;;;;;5052213;28;19935;-70
2023/01/04 15:15:28;;;;;;;;;;;8.50;99.90;;;;;;5061530;28;20002;-71
2023/01/04 15:17:55;;;;;;;;;;;8.50;99.90;;;;;;5036036;28;19924;-70
2023/01/04 15:20:26;;;;;;;;;;;8.50;99.90;;;;;;5038180;28;19925;-70
2023/01/04 15:22:54;;;;;;;;;;;8.50;99.90;;;;;;5051971;28;19935;-71
2023/01/04 15:25:22;;;;;;;;;;;8.40;99.90;;;;;;5035666;28;20315;-70
2023/01/04 15:27:53;;;;;;;;;;;8.40;99.90;;;;;;5036059;28;20015;-74
2023/01/04 15:30:25;;;;;;;;;;;8.40;99.90;;;;;;5034884;28;20355;-71
2023/01/04 15:32:56;;;;;;;;;;;8.40;99.90;;;;;;5033424;28;19929;-71
2023/01/04 15:35:25;;;;;;;;;;;8.40;99.90;;;;;;5015757;28;19932;-69
2023/01/04 15:38:07;;;;;;;;;;;8.50;99.90;;;;;;5048787;28;19931;-70
2023/01/04 15:40:58;;;;;;;;;;;8.40;99.90;;;;;;5054339;28;20027;-70
2023/01/04 15:43:26;;;;;;;;;;;8.40;99.90;;;;;;5032803;28;20043;-70
2023/01/04 15:45:55;;;;;;;;;;;8.40;99.90;;;;;;5034865;28;20349;-70
2023/01/04 15:48:25;;;;;;;;;;;8.40;99.90;;;;;;5038063;28;19932;-73
2023/01/04 15:50:55;;;;;;;;;;;8.40;99.90;;;;;;5034151;28;20023;-72
2023/01/04 15:53:26;;;;;;;;;;;8.50;99.90;;;;;;5037157;28;19951;-70
2023/01/04 15:56:04;;;;;;;;;;;8.40;99.90;;;;;;5035246;28;19944;-70
2023/01/04 15:58:33;;;;;;;;;;;8.40;99.90;;;;;;5032683;28;19932;-72
2023/01/04 16:01:14;;;;;;;;;;;8.40;99.90;;;;;;5048248;28;19929;-71
2023/01/04 16:03:42;;;;;;;;;;;8.40;99.90;;;;;;5047905;28;19931;-70
2023/01/04 16:06:14;;;;;;;;;;;8.50;99.90;;;;;;5034047;28;19932;-71
2023/01/04 16:08:45;;;;;;;;;;;8.40;99.90;;;;;;5035614;28;20388;-70
2023/01/04 16:11:15;;;;;;;;;;;8.40;99.90;;;;;;5047423;28;20019;-73
2023/01/04 16:14:09;;;;;;;;;;;8.40;99.90;;;;;;5049605;28;20026;-71
2023/01/04 16:16:37;;;;;;;;;;;8.40;99.90;;;;;;5048050;28;19931;-72